Terminal Aerodrome Forecast
Issued by NWS Mt. Holly, NJ

Home | Current Version | Previous Version | Text Only | Print | Product List | Glossary On
Versions: 1 2 3 4 5 6 7 8 9 10 11 12 13
000
FTUS41 KPHI 221756
TAFACY
TAF
KACY 221756Z 2218/2318 22005KT P6SM BKN015
     FM221900 20007KT P6SM BKN150
     FM230300 21004KT P6SM SCT110
     FM230600 21003KT 5SM BR FEW003 SCT110
     FM231300 19006KT P6SM BKN005 BKN030
     FM231600 22008KT P6SM BKN010
     FM231700 22009KT P6SM SCT010 BKN050=

USA.gov is the U.S. government's official web portal to all federal, state and local government web resources and services.